Time;durP1;ratioP1;P1;durP2;ratioP2;P2;SDS_P1;SDS_P2;PMS_P1;PMS_P2;Temp;Humidity;BMP_temperature;BMP_pressure;BME280_temperature;BME280_humidity;BME280_pressure;Samples;Min_cycle;Max_cycle;Signal;HPM_P1;HPM_P2
2020/12/16 00:01:59;;;;;;;20.47;16.83;;;12.40;95.60;;;;;;5058182;28;20655;-51
2020/12/16 00:04:26;;;;;;;19.70;17.57;;;12.40;95.60;;;;;;5071521;28;20653;-53
2020/12/16 00:06:53;;;;;;;19.80;16.57;;;12.30;95.60;;;;;;5072724;28;20625;-53
2020/12/16 00:09:20;;;;;;;19.13;17.17;;;12.40;95.70;;;;;;5072623;28;20628;-52
2020/12/16 00:11:47;;;;;;;22.13;18.03;;;12.30;95.70;;;;;;5070361;28;20653;-51
2020/12/16 00:14:14;;;;;;;25.97;18.50;;;12.30;95.80;;;;;;5070037;28;20633;-52
2020/12/16 00:16:41;;;;;;;18.40;14.93;;;12.30;95.80;;;;;;5072281;28;20653;-53
2020/12/16 00:19:08;;;;;;;16.80;12.77;;;12.30;95.60;;;;;;5072084;28;20661;-51
2020/12/16 00:21:34;;;;;;;45.57;13.73;;;12.30;95.60;;;;;;5063712;28;20688;-53
2020/12/16 00:24:01;;;;;;;40.20;13.87;;;12.30;95.50;;;;;;5055165;28;20686;-52
2020/12/16 00:26:28;;;;;;;18.70;15.10;;;12.30;95.40;;;;;;5065310;28;20726;-52
2020/12/16 00:28:55;;;;;;;40.07;13.47;;;12.20;95.30;;;;;;5068274;28;20636;-53
2020/12/16 00:31:22;;;;;;;14.30;12.47;;;12.20;95.50;;;;;;5057087;28;20730;-53
2020/12/16 00:33:49;;;;;;;18.77;14.23;;;12.10;95.60;;;;;;5054149;28;20666;-52
2020/12/16 00:36:16;;;;;;;32.70;13.00;;;12.10;95.60;;;;;;5051639;28;20684;-53
2020/12/16 00:38:42;;;;;;;32.10;13.50;;;12.10;95.70;;;;;;5051560;28;20622;-52
2020/12/16 00:41:10;;;;;;;65.90;16.20;;;12.00;95.70;;;;;;5053324;28;20678;-52
2020/12/16 00:43:36;;;;;;;73.63;16.30;;;12.00;95.80;;;;;;5071307;28;20665;-52
2020/12/16 00:46:03;;;;;;;49.17;14.13;;;12.00;95.80;;;;;;5071365;28;20656;-53
2020/12/16 00:48:31;;;;;;;45.17;14.13;;;12.00;95.80;;;;;;5069731;28;20964;-52
2020/12/16 00:50:57;;;;;;;42.87;14.70;;;12.00;95.70;;;;;;5069506;28;20733;-52
2020/12/16 00:53:24;;;;;;;36.87;15.83;;;12.00;95.80;;;;;;5059317;28;20669;-52
2020/12/16 00:55:51;;;;;;;36.20;13.23;;;11.90;95.70;;;;;;5055509;28;20646;-51
2020/12/16 00:58:18;;;;;;;27.47;13.27;;;11.90;95.70;;;;;;5050366;28;20630;-53
2020/12/16 01:00:44;;;;;;;14.20;11.37;;;11.90;95.60;;;;;;5064757;28;20702;-52
2020/12/16 01:03:11;;;;;;;20.83;12.60;;;11.80;95.60;;;;;;5075505;28;20649;-51
2020/12/16 01:05:39;;;;;;;13.83;12.40;;;11.80;95.70;;;;;;5075379;28;20695;-53
2020/12/16 01:08:06;;;;;;;15.03;13.13;;;11.80;95.80;;;;;;5071549;28;20653;-51
2020/12/16 01:10:32;;;;;;;16.27;13.57;;;11.80;95.80;;;;;;5074964;28;20652;-52
2020/12/16 01:12:59;;;;;;;12.87;11.67;;;11.80;95.80;;;;;;5074751;28;20625;-53
2020/12/16 01:15:26;;;;;;;13.70;12.47;;;11.80;95.90;;;;;;5071092;28;20668;-52
2020/12/16 01:17:53;;;;;;;13.70;11.90;;;11.80;95.90;;;;;;5058001;28;20633;-53
2020/12/16 01:20:19;;;;;;;14.67;13.20;;;11.80;95.90;;;;;;5059151;28;20670;-54
2020/12/16 01:22:48;;;;;;;15.97;14.50;;;11.80;95.90;;;;;;5057983;28;20669;-53
2020/12/16 01:25:15;;;;;;;13.20;12.10;;;11.80;95.90;;;;;;5075073;28;21009;-53
2020/12/16 01:27:41;;;;;;;13.03;11.87;;;11.80;95.90;;;;;;5074990;28;20641;-53
2020/12/16 01:30:09;;;;;;;14.20;12.90;;;11.80;95.80;;;;;;5056883;28;20800;-53
2020/12/16 01:32:36;;;;;;;13.07;11.97;;;11.90;95.90;;;;;;5061417;28;20629;-53
2020/12/16 01:35:03;;;;;;;12.30;11.17;;;11.80;95.80;;;;;;5072996;28;20625;-53
2020/12/16 01:37:30;;;;;;;12.30;11.20;;;11.90;95.80;;;;;;5074839;28;20670;-54
2020/12/16 01:39:58;;;;;;;13.60;12.40;;;11.90;95.60;;;;;;5074153;28;21047;-52
2020/12/16 01:42:24;;;;;;;11.97;10.87;;;11.90;95.50;;;;;;5073091;28;20995;-52
2020/12/16 01:44:51;;;;;;;13.17;11.97;;;12.00;95.70;;;;;;5074450;28;20692;-54
2020/12/16 01:47:18;;;;;;;13.30;12.17;;;11.90;95.60;;;;;;5074387;28;20664;-53
2020/12/16 01:49:45;;;;;;;12.80;11.60;;;11.90;95.50;;;;;;5074365;28;20629;-52
2020/12/16 01:52:15;;;;;;;13.20;12.00;;;11.90;95.60;;;;;;5072693;28;20664;-53
2020/12/16 01:54:41;;;;;;;12.00;11.00;;;11.90;95.60;;;;;;5074069;28;20693;-53
2020/12/16 01:57:09;;;;;;;12.67;11.57;;;11.90;95.60;;;;;;5072872;28;20637;-53
2020/12/16 01:59:36;;;;;;;12.50;11.40;;;12.00;95.60;;;;;;5072635;28;21153;-53
2020/12/16 02:02:03;;;;;;;15.70;14.30;;;12.00;95.60;;;;;;5073872;28;20657;-53
2020/12/16 02:04:34;;;;;;;13.63;12.33;;;12.00;95.40;;;;;;5073974;28;20685;-53
2020/12/16 02:07:01;;;;;;;13.10;12.00;;;12.00;95.40;;;;;;5071445;28;20935;-53
2020/12/16 02:09:28;;;;;;;14.27;12.80;;;12.00;95.50;;;;;;5054564;28;20665;-53
2020/12/16 02:11:54;;;;;;;14.97;13.47;;;12.00;95.50;;;;;;5054167;28;20651;-54
2020/12/16 02:14:22;;;;;;;17.37;13.80;;;12.00;95.60;;;;;;5059354;28;20653;-52
2020/12/16 02:16:49;;;;;;;14.63;13.23;;;12.00;95.60;;;;;;5064228;28;20659;-54
2020/12/16 02:19:17;;;;;;;12.47;11.27;;;12.00;95.50;;;;;;5065536;28;20668;-53
2020/12/16 02:21:44;;;;;;;14.80;13.50;;;12.00;95.60;;;;;;5074010;28;20685;-53
2020/12/16 02:24:10;;;;;;;12.90;11.80;;;12.00;95.60;;;;;;5072591;28;20687;-53
2020/12/16 02:26:39;;;;;;;12.70;11.60;;;12.00;95.70;;;;;;5073164;28;20706;-53
2020/12/16 02:29:07;;;;;;;13.00;11.80;;;12.00;96.10;;;;;;5054445;28;20994;-53
2020/12/16 02:31:35;;;;;;;14.47;12.60;;;12.10;95.70;;;;;;5053757;28;21249;-52
2020/12/16 02:34:01;;;;;;;12.53;11.53;;;12.10;95.70;;;;;;5053459;28;20654;-53
2020/12/16 02:36:28;;;;;;;12.30;11.10;;;12.10;95.70;;;;;;5071557;28;20980;-54
2020/12/16 02:38:55;;;;;;;11.47;10.57;;;12.10;95.70;;;;;;5073797;28;20653;-53
2020/12/16 02:41:22;;;;;;;12.50;11.30;;;12.10;95.70;;;;;;5073786;28;20699;-53
2020/12/16 02:43:49;;;;;;;12.90;11.67;;;12.20;95.70;;;;;;5056480;28;20661;-53
2020/12/16 02:46:16;;;;;;;12.60;11.60;;;12.20;96.00;;;;;;5053730;28;20692;-53
2020/12/16 02:48:43;;;;;;;13.33;12.17;;;12.20;95.60;;;;;;5053554;28;20665;-53
2020/12/16 02:51:10;;;;;;;12.50;11.30;;;12.20;95.60;;;;;;5061681;28;21421;-52
2020/12/16 02:53:36;;;;;;;13.53;12.27;;;12.20;95.50;;;;;;5073275;28;20661;-52
2020/12/16 02:56:03;;;;;;;12.33;11.23;;;12.20;95.50;;;;;;5066049;28;20679;-52
2020/12/16 02:58:30;;;;;;;12.53;11.50;;;12.30;95.80;;;;;;5067877;28;20659;-53
2020/12/16 03:00:58;;;;;;;13.50;12.30;;;12.30;95.50;;;;;;5072768;28;20656;-52
2020/12/16 03:03:24;;;;;;;12.50;11.40;;;12.30;95.50;;;;;;5073635;28;20667;-52
2020/12/16 03:05:51;;;;;;;14.63;13.27;;;12.30;95.50;;;;;;5067369;28;20687;-52
2020/12/16 03:08:19;;;;;;;14.07;12.73;;;12.30;95.30;;;;;;5054497;28;20669;-52
2020/12/16 03:10:46;;;;;;;14.70;13.33;;;12.30;95.50;;;;;;5054655;28;20653;-54
2020/12/16 03:13:13;;;;;;;13.27;12.07;;;12.30;95.50;;;;;;5067831;28;20660;-54
2020/12/16 03:15:40;;;;;;;14.90;13.40;;;12.30;95.50;;;;;;5073109;28;21201;-55
2020/12/16 03:18:07;;;;;;;13.90;12.80;;;12.40;95.60;;;;;;5067734;28;20715;-55
2020/12/16 03:20:34;;;;;;;14.93;13.40;;;12.40;95.60;;;;;;5054428;28;20680;-54
2020/12/16 03:23:01;;;;;;;14.93;13.53;;;12.40;95.60;;;;;;5056946;28;21169;-52
2020/12/16 03:25:27;;;;;;;14.93;13.50;;;12.40;95.60;;;;;;5072194;28;20693;-54
2020/12/16 03:27:54;;;;;;;13.90;12.70;;;12.40;95.60;;;;;;5072527;28;20661;-55
2020/12/16 03:30:21;;;;;;;14.57;13.07;;;12.30;95.50;;;;;;5072827;28;20684;-53
2020/12/16 03:32:48;;;;;;;13.70;12.40;;;12.30;95.60;;;;;;5072167;28;20617;-53
2020/12/16 03:35:16;;;;;;;16.27;14.77;;;12.40;95.70;;;;;;5071032;28;21163;-53
2020/12/16 03:37:42;;;;;;;13.63;12.43;;;12.40;95.70;;;;;;5072450;28;20659;-53
2020/12/16 03:40:09;;;;;;;15.00;13.63;;;12.40;95.70;;;;;;5064086;28;20720;-52
2020/12/16 03:42:36;;;;;;;16.90;15.27;;;12.40;95.80;;;;;;5052285;28;20668;-52
2020/12/16 03:45:03;;;;;;;15.30;13.80;;;12.40;95.80;;;;;;5052661;28;20657;-53
2020/12/16 03:47:29;;;;;;;15.00;13.60;;;12.40;95.90;;;;;;5070839;28;20669;-52
2020/12/16 03:49:56;;;;;;;16.30;14.83;;;12.40;95.80;;;;;;5072251;28;21176;-53
2020/12/16 03:52:24;;;;;;;14.63;12.67;;;12.40;95.80;;;;;;5052578;22;20880;-52
2020/12/16 03:54:51;;;;;;;15.70;14.20;;;12.40;95.80;;;;;;5012209;28;20996;-53
2020/12/16 03:57:17;;;;;;;15.43;14.00;;;12.50;95.80;;;;;;4994825;28;20624;-50
2020/12/16 03:59:44;;;;;;;16.97;15.40;;;12.50;95.80;;;;;;4993589;28;20632;-51
2020/12/16 04:02:11;;;;;;;17.60;16.00;;;12.40;95.80;;;;;;5010957;28;21289;-52
2020/12/16 04:04:38;;;;;;;17.47;14.90;;;12.40;95.80;;;;;;5011240;28;20715;-50
2020/12/16 04:07:04;;;;;;;16.03;14.40;;;12.40;95.80;;;;;;5010912;28;20624;-53
2020/12/16 04:09:32;;;;;;;17.30;15.67;;;12.40;95.80;;;;;;5010720;28;20667;-52
2020/12/16 04:11:59;;;;;;;17.37;15.67;;;12.40;95.90;;;;;;5011616;28;20706;-52
2020/12/16 04:14:25;;;;;;;17.40;15.77;;;12.50;95.90;;;;;;5010380;28;21001;-53
2020/12/16 04:16:55;;;;;;;16.40;14.80;;;12.40;95.90;;;;;;5010776;28;20663;-52
2020/12/16 04:19:22;;;;;;;16.03;14.63;;;12.50;95.90;;;;;;5012690;28;20659;-51
2020/12/16 04:21:53;;;;;;;18.97;17.13;;;12.50;95.90;;;;;;5022216;28;20694;-53
2020/12/16 04:24:20;;;;;;;21.17;17.80;;;12.50;95.80;;;;;;5010494;28;20675;-50
2020/12/16 04:26:47;;;;;;;18.87;16.97;;;12.50;95.80;;;;;;5015297;28;20737;-52
2020/12/16 04:29:14;;;;;;;20.63;18.63;;;12.50;95.80;;;;;;5030271;28;20658;-51
2020/12/16 04:31:41;;;;;;;19.47;17.50;;;12.50;95.90;;;;;;5028217;28;21171;-52
2020/12/16 04:34:08;;;;;;;18.03;16.40;;;12.50;96.00;;;;;;5009457;28;20965;-48
2020/12/16 04:36:35;;;;;;;17.97;16.30;;;12.40;95.90;;;;;;5029508;28;20650;-49
2020/12/16 04:39:01;;;;;;;18.77;16.43;;;12.40;96.00;;;;;;5030210;28;20659;-51
2020/12/16 04:41:28;;;;;;;20.13;18.37;;;12.40;96.10;;;;;;5029274;28;20723;-52
2020/12/16 04:43:56;;;;;;;19.63;17.73;;;12.40;96.20;;;;;;5029518;28;21246;-49
2020/12/16 04:46:22;;;;;;;19.17;17.27;;;12.40;96.20;;;;;;5029825;28;20736;-51
2020/12/16 04:48:49;;;;;;;22.60;20.20;;;12.50;96.10;;;;;;5014666;28;21193;-48
2020/12/16 04:51:16;;;;;;;19.40;17.43;;;12.50;96.10;;;;;;5010348;28;21017;-47
2020/12/16 04:53:44;;;;;;;23.77;19.17;;;12.50;96.10;;;;;;5010842;28;20667;-49
2020/12/16 04:56:12;;;;;;;19.90;17.73;;;12.50;96.20;;;;;;5010035;28;20689;-49
2020/12/16 04:58:39;;;;;;;21.70;18.90;;;12.40;96.20;;;;;;5009497;28;20750;-50
2020/12/16 05:01:06;;;;;;;23.03;20.00;;;12.40;96.30;;;;;;5009874;28;20686;-49
2020/12/16 05:03:33;;;;;;;19.53;17.30;;;12.50;96.40;;;;;;5009483;28;20762;-50
2020/12/16 05:06:00;;;;;;;20.77;18.67;;;12.40;96.40;;;;;;5009545;28;20688;-49
2020/12/16 05:08:27;;;;;;;22.67;20.43;;;12.50;96.40;;;;;;5011127;28;20659;-49
2020/12/16 05:10:54;;;;;;;19.83;17.73;;;12.50;96.40;;;;;;5019210;28;21249;-48
2020/12/16 05:13:21;;;;;;;21.30;19.03;;;12.50;96.40;;;;;;5007320;28;21285;-48
2020/12/16 05:15:49;;;;;;;20.97;18.87;;;12.50;96.40;;;;;;5029515;28;20646;-49
2020/12/16 05:18:17;;;;;;;19.60;17.60;;;12.50;96.40;;;;;;5029394;28;20667;-50
2020/12/16 05:20:45;;;;;;;21.20;18.97;;;12.50;96.40;;;;;;5011982;28;20822;-49
2020/12/16 05:23:11;;;;;;;21.77;19.37;;;12.50;96.40;;;;;;4999131;28;20666;-51
2020/12/16 05:25:38;;;;;;;19.47;17.37;;;12.50;96.40;;;;;;5010233;28;20684;-52
2020/12/16 05:28:05;;;;;;;18.50;16.40;;;12.50;96.40;;;;;;5009697;28;20801;-53
2020/12/16 05:30:33;;;;;;;17.70;16.10;;;12.50;96.30;;;;;;5009660;28;20678;-51
2020/12/16 05:33:03;;;;;;;17.90;16.17;;;12.50;96.20;;;;;;5009410;28;21227;-50
2020/12/16 05:35:32;;;;;;;21.00;18.63;;;12.50;96.20;;;;;;5028343;28;20659;-51
2020/12/16 05:38:04;;;;;;;18.73;16.83;;;12.50;96.00;;;;;;5023634;28;20670;-53
2020/12/16 05:40:31;;;;;;;17.47;15.77;;;12.50;96.00;;;;;;5010148;28;20639;-51
2020/12/16 05:42:58;;;;;;;17.10;15.30;;;12.50;96.30;;;;;;5009608;28;20647;-53
2020/12/16 05:45:27;;;;;;;15.17;13.70;;;12.50;96.10;;;;;;5009533;28;20695;-52
2020/12/16 05:48:01;;;;;;;16.43;14.87;;;12.50;96.10;;;;;;5012687;28;21054;-51
2020/12/16 05:50:37;;;;;;;16.23;14.60;;;12.50;96.00;;;;;;5011633;28;20654;-50
2020/12/16 05:53:15;;;;;;;14.50;13.10;;;12.40;96.00;;;;;;5001649;28;21303;-52
2020/12/16 05:55:41;;;;;;;15.57;14.10;;;12.40;96.00;;;;;;5012703;28;20671;-52
2020/12/16 05:58:10;;;;;;;15.57;14.27;;;12.40;96.00;;;;;;4998076;28;20671;-50
2020/12/16 06:00:50;;;;;;;15.07;13.73;;;12.30;95.90;;;;;;4993217;28;20683;-51
2020/12/16 06:03:22;;;;;;;13.97;12.60;;;12.40;96.00;;;;;;4993181;28;20628;-52
2020/12/16 06:05:54;;;;;;;14.80;13.50;;;12.30;96.00;;;;;;4993687;28;21089;-51
2020/12/16 06:08:21;;;;;;;14.00;12.70;;;12.30;95.90;;;;;;5003497;28;21202;-51
2020/12/16 06:10:48;;;;;;;16.93;15.30;;;12.30;96.00;;;;;;5031983;28;21064;-52
2020/12/16 06:13:15;;;;;;;13.93;12.73;;;12.30;96.00;;;;;;5027785;28;20666;-52
2020/12/16 06:15:59;;;;;;;15.83;14.30;;;12.30;96.00;;;;;;5012937;28;20658;-51
2020/12/16 06:18:28;;;;;;;14.37;13.07;;;12.40;96.00;;;;;;5012665;28;20655;-51
2020/12/16 06:20:55;;;;;;;14.90;13.30;;;12.30;95.90;;;;;;5012329;28;20675;-51
2020/12/16 06:23:27;;;;;;;16.73;15.20;;;12.30;95.90;;;;;;5013331;28;20666;-53
2020/12/16 06:25:55;;;;;;;15.23;13.77;;;12.30;96.20;;;;;;5012363;28;21297;-51
2020/12/16 06:28:21;;;;;;;14.67;13.30;;;12.30;95.90;;;;;;5012816;28;20658;-52
2020/12/16 06:30:53;;;;;;;15.93;14.40;;;12.30;95.80;;;;;;5012363;28;21236;-51
2020/12/16 06:33:36;;;;;;;15.30;13.77;;;12.30;96.00;;;;;;4994117;28;20624;-51
2020/12/16 06:36:05;;;;;;;15.50;14.00;;;12.30;96.00;;;;;;5011490;28;20710;-52
2020/12/16 06:38:38;;;;;;;14.33;12.93;;;12.20;96.00;;;;;;5012005;28;20701;-51
2020/12/16 06:41:05;;;;;;;15.90;14.40;;;12.20;96.10;;;;;;5012737;28;21064;-51
2020/12/16 06:43:35;;;;;;;16.50;14.90;;;12.20;96.20;;;;;;5010832;28;20688;-50
2020/12/16 06:46:03;;;;;;;15.40;14.10;;;12.10;96.10;;;;;;5011757;28;21168;-51
2020/12/16 06:48:33;;;;;;;13.60;12.40;;;12.10;96.20;;;;;;5010545;28;20634;-52
2020/12/16 06:51:17;;;;;;;14.30;13.00;;;12.00;96.40;;;;;;5011835;28;20718;-50
2020/12/16 06:53:43;;;;;;;14.80;13.40;;;12.00;96.60;;;;;;5012034;28;21442;-49
2020/12/16 06:56:10;;;;;;;14.17;12.87;;;12.10;96.70;;;;;;5012782;28;20631;-49
2020/12/16 06:58:37;;;;;;;15.23;13.83;;;12.10;96.70;;;;;;5028009;28;20686;-48
2020/12/16 07:01:11;;;;;;;13.03;11.73;;;12.10;96.70;;;;;;5011506;28;20999;-49
2020/12/16 07:03:37;;;;;;;15.13;12.37;;;12.20;96.70;;;;;;5012381;28;20648;-49
2020/12/16 07:06:04;;;;;;;13.53;12.23;;;12.20;96.70;;;;;;5011722;28;20726;-50
2020/12/16 07:08:32;;;;;;;12.27;11.27;;;12.20;96.60;;;;;;5011461;28;20655;-53
2020/12/16 07:10:58;;;;;;;13.17;12.10;;;12.20;96.60;;;;;;5011463;28;20711;-52
2020/12/16 07:13:28;;;;;;;11.33;10.33;;;12.30;96.60;;;;;;5011488;28;20660;-53
2020/12/16 07:15:56;;;;;;;13.13;11.80;;;12.30;96.60;;;;;;5011896;28;20675;-53
2020/12/16 07:18:25;;;;;;;12.30;11.20;;;12.30;96.60;;;;;;5011245;28;20663;-52
2020/12/16 07:20:59;;;;;;;11.60;10.60;;;12.30;96.60;;;;;;5011764;28;20686;-53
2020/12/16 07:23:34;;;;;;;13.63;12.33;;;12.40;96.60;;;;;;5011551;28;20642;-53
2020/12/16 07:26:02;;;;;;;11.87;10.83;;;12.40;96.50;;;;;;5011358;28;20774;-52
2020/12/16 07:28:33;;;;;;;12.87;11.73;;;12.40;96.40;;;;;;5011234;28;20655;-49
2020/12/16 07:31:03;;;;;;;14.10;12.60;;;12.40;96.20;;;;;;5011992;28;20718;-47
2020/12/16 07:33:29;;;;;;;13.90;12.60;;;12.40;96.20;;;;;;5011654;28;20675;-50
2020/12/16 07:35:56;;;;;;;12.60;11.60;;;12.40;96.20;;;;;;5012063;28;20660;-49
2020/12/16 07:38:23;;;;;;;12.77;11.67;;;12.40;96.20;;;;;;5011426;28;20632;-50
2020/12/16 07:40:51;;;;;;;11.90;10.90;;;12.40;96.10;;;;;;5011622;28;20643;-50
2020/12/16 07:43:19;;;;;;;13.30;11.97;;;12.40;96.10;;;;;;5011896;28;20669;-50
2020/12/16 07:45:46;;;;;;;12.20;11.10;;;12.40;96.10;;;;;;4993374;28;20666;-49
2020/12/16 07:48:16;;;;;;;11.63;10.63;;;12.50;96.20;;;;;;5011442;28;20670;-53
2020/12/16 07:50:43;;;;;;;13.37;12.17;;;12.50;96.10;;;;;;5010987;28;20691;-51
2020/12/16 07:53:10;;;;;;;12.57;11.57;;;12.50;96.10;;;;;;5011601;28;20666;-51
2020/12/16 07:55:40;;;;;;;12.47;11.33;;;12.50;96.00;;;;;;5011726;28;20643;-49
2020/12/16 07:58:07;;;;;;;12.83;11.57;;;12.50;96.10;;;;;;5011310;28;20623;-50
2020/12/16 08:00:35;;;;;;;13.00;11.70;;;12.50;96.00;;;;;;5011474;28;20615;-53
2020/12/16 08:03:02;;;;;;;14.07;12.77;;;12.50;96.10;;;;;;5010842;28;21026;-53
2020/12/16 08:05:29;;;;;;;14.00;12.50;;;12.50;96.00;;;;;;5010860;28;20706;-54
2020/12/16 08:08:01;;;;;;;13.73;12.43;;;12.50;96.00;;;;;;5010734;28;20670;-50
2020/12/16 08:10:28;;;;;;;12.67;11.50;;;12.50;96.00;;;;;;5009602;28;20642;-51
2020/12/16 08:12:54;;;;;;;12.00;10.90;;;12.60;96.00;;;;;;5010545;28;20658;-50
2020/12/16 08:15:22;;;;;;;12.60;11.40;;;12.50;95.90;;;;;;5011197;28;20631;-51
2020/12/16 08:17:51;;;;;;;14.00;12.80;;;12.50;95.80;;;;;;5011005;28;21088;-50
2020/12/16 08:20:19;;;;;;;12.67;11.47;;;12.60;95.90;;;;;;5010643;28;20631;-53
2020/12/16 08:22:46;;;;;;;13.80;12.60;;;12.60;96.10;;;;;;5010757;28;20986;-53
2020/12/16 08:25:14;;;;;;;13.80;12.50;;;12.60;95.70;;;;;;5010636;28;20690;-50
2020/12/16 08:27:43;;;;;;;13.17;11.97;;;12.60;95.70;;;;;;4992751;28;20640;-50
2020/12/16 08:30:11;;;;;;;14.03;12.70;;;12.60;95.80;;;;;;5010328;28;20666;-50
2020/12/16 08:32:50;;;;;;;14.80;13.40;;;12.60;95.80;;;;;;5010996;28;20663;-53
2020/12/16 08:35:20;;;;;;;12.93;11.77;;;12.60;95.80;;;;;;5010410;28;20659;-52
2020/12/16 08:37:48;;;;;;;11.63;10.53;;;12.60;95.90;;;;;;5010324;28;20663;-52
2020/12/16 08:40:17;;;;;;;12.70;11.60;;;12.60;95.90;;;;;;5010712;28;20655;-50
2020/12/16 08:42:43;;;;;;;12.43;11.03;;;12.70;95.90;;;;;;5009874;28;21199;-54
2020/12/16 08:45:10;;;;;;;13.97;12.73;;;12.70;95.90;;;;;;5010604;28;20656;-51
2020/12/16 08:47:37;;;;;;;12.67;11.50;;;12.80;96.00;;;;;;5010204;28;20660;-50
2020/12/16 08:50:07;;;;;;;12.90;11.60;;;12.80;95.90;;;;;;5010140;28;21149;-54
2020/12/16 08:52:45;;;;;;;13.43;12.10;;;12.80;95.80;;;;;;5009606;28;20698;-53
2020/12/16 08:55:16;;;;;;;12.77;11.40;;;12.90;95.80;;;;;;5009967;28;20648;-48
2020/12/16 08:57:52;;;;;;;10.50;9.50;;;12.90;95.70;;;;;;5009725;28;21156;-53
2020/12/16 09:00:24;;;;;;;12.10;11.00;;;12.90;96.00;;;;;;5009486;28;20663;-53
2020/12/16 09:03:00;;;;;;;11.77;10.73;;;13.00;95.70;;;;;;5009763;28;20662;-51
2020/12/16 09:05:27;;;;;;;11.60;10.60;;;13.00;95.50;;;;;;5009948;28;20671;-53
2020/12/16 09:08:08;;;;;;;13.57;12.37;;;13.00;95.30;;;;;;5010187;28;20663;-49
2020/12/16 09:10:35;;;;;;;13.53;12.23;;;13.00;95.30;;;;;;5010165;28;20640;-53
2020/12/16 09:13:15;;;;;;;11.27;10.27;;;13.00;95.30;;;;;;5009445;28;20655;-53
2020/12/16 09:15:47;;;;;;;11.80;10.60;;;13.00;95.40;;;;;;5009838;28;20624;-51
2020/12/16 09:18:13;;;;;;;12.60;11.53;;;13.00;95.40;;;;;;5009649;28;20659;-51
2020/12/16 09:20:41;;;;;;;11.83;10.80;;;13.00;95.30;;;;;;5009856;28;20656;-53
2020/12/16 09:23:08;;;;;;;11.13;10.13;;;13.00;95.20;;;;;;5013246;28;20652;-52
2020/12/16 09:25:35;;;;;;;11.50;10.50;;;13.10;95.30;;;;;;5013901;28;20961;-53
2020/12/16 09:28:02;;;;;;;19.83;12.27;;;13.10;95.30;;;;;;5013852;28;21249;-50
2020/12/16 09:30:30;;;;;;;12.60;11.33;;;13.20;95.20;;;;;;5013104;28;20969;-51
2020/12/16 09:32:57;;;;;;;12.00;10.90;;;13.30;95.20;;;;;;5014277;28;20658;-53
2020/12/16 09:35:27;;;;;;;13.03;11.93;;;13.40;95.00;;;;;;5014338;28;20632;-54
2020/12/16 09:37:54;;;;;;;13.13;11.93;;;13.50;94.80;;;;;;5014158;28;20624;-54
2020/12/16 09:40:24;;;;;;;11.90;10.83;;;13.50;94.60;;;;;;5014350;28;20651;-52
2020/12/16 09:42:54;;;;;;;11.63;10.67;;;13.50;94.50;;;;;;5014805;28;20636;-53
2020/12/16 09:45:21;;;;;;;11.53;10.53;;;13.60;94.40;;;;;;5013886;28;21186;-54
2020/12/16 09:47:50;;;;;;;10.90;9.90;;;13.70;94.30;;;;;;5013828;28;20734;-53
2020/12/16 09:50:17;;;;;;;12.40;11.20;;;13.70;94.20;;;;;;5014383;28;20607;-51
2020/12/16 09:52:44;;;;;;;10.10;9.20;;;13.80;94.10;;;;;;5091902;22;20690;-52
2020/12/16 09:55:16;;;;;;;11.13;10.13;;;13.90;94.10;;;;;;5090240;28;21135;-53
2020/12/16 09:57:44;;;;;;;12.30;11.27;;;13.90;94.00;;;;;;5074437;28;20658;-53
2020/12/16 10:00:11;;;;;;;11.00;9.77;;;14.00;93.80;;;;;;5074064;28;20625;-54
2020/12/16 10:02:38;;;;;;;11.97;10.80;;;14.00;93.70;;;;;;5074230;28;20648;-52
2020/12/16 10:05:05;;;;;;;12.00;10.90;;;14.10;93.80;;;;;;5074502;28;20656;-53
2020/12/16 10:07:33;;;;;;;11.90;10.77;;;14.20;93.80;;;;;;5074135;28;20661;-55
2020/12/16 10:10:00;;;;;;;12.63;10.17;;;14.20;93.60;;;;;;5074533;28;20698;-54
2020/12/16 10:12:26;;;;;;;11.93;10.93;;;14.30;93.70;;;;;;5073851;28;20684;-53
2020/12/16 10:14:54;;;;;;;13.10;11.50;;;14.30;93.40;;;;;;5073749;28;21200;-54
2020/12/16 10:17:24;;;;;;;11.57;10.50;;;14.30;93.20;;;;;;5073782;28;20617;-52
2020/12/16 10:19:51;;;;;;;12.87;11.57;;;14.30;93.00;;;;;;5073946;28;21223;-55
2020/12/16 10:22:19;;;;;;;12.37;11.27;;;14.30;92.80;;;;;;5074172;28;20657;-52
2020/12/16 10:24:46;;;;;;;10.13;9.17;;;14.50;93.20;;;;;;5074072;28;20631;-54
2020/12/16 10:27:13;;;;;;;11.47;10.47;;;14.90;93.10;;;;;;5074479;28;20697;-55
2020/12/16 10:29:40;;;;;;;11.37;10.20;;;15.20;92.80;;;;;;5072886;28;20683;-54
2020/12/16 10:32:07;;;;;;;12.00;10.30;;;15.30;92.20;;;;;;5073198;28;20652;-53
2020/12/16 10:34:34;;;;;;;11.40;10.33;;;15.30;91.90;;;;;;5072882;28;20708;-52
2020/12/16 10:37:01;;;;;;;11.07;9.73;;;15.20;91.70;;;;;;5073265;28;20671;-53
2020/12/16 10:39:28;;;;;;;11.67;10.67;;;15.10;91.70;;;;;;5073730;28;21187;-51
2020/12/16 10:41:57;;;;;;;12.57;11.37;;;15.00;91.90;;;;;;5073256;28;20681;-51
2020/12/16 10:44:24;;;;;;;11.00;10.10;;;14.90;92.10;;;;;;5073278;28;20649;-51
2020/12/16 10:46:54;;;;;;;12.23;11.10;;;14.90;92.30;;;;;;5073243;28;20684;-52
2020/12/16 10:49:22;;;;;;;11.07;10.00;;;15.00;92.60;;;;;;5073758;28;20668;-53
2020/12/16 10:51:49;;;;;;;10.30;9.20;;;15.20;92.50;;;;;;5071530;28;20661;-52
2020/12/16 10:54:16;;;;;;;10.53;9.57;;;15.50;92.60;;;;;;5073112;28;20660;-53
2020/12/16 10:56:44;;;;;;;10.80;9.90;;;15.80;91.80;;;;;;5072988;28;20617;-54
2020/12/16 10:59:11;;;;;;;9.30;8.50;;;16.10;90.90;;;;;;5073307;28;20657;-54
2020/12/16 11:01:38;;;;;;;11.10;10.10;;;16.10;90.40;;;;;;5072230;28;20767;-52
2020/12/16 11:04:08;;;;;;;10.33;9.40;;;16.00;90.30;;;;;;5072397;28;20656;-54
2020/12/16 11:06:35;;;;;;;10.17;9.20;;;15.90;90.10;;;;;;5072895;28;21246;-53
2020/12/16 11:09:03;;;;;;;10.17;9.37;;;15.90;90.30;;;;;;5072727;28;20649;-52
2020/12/16 11:11:30;;;;;;;11.07;10.20;;;15.80;90.30;;;;;;5072341;28;20668;-54
2020/12/16 11:13:57;;;;;;;10.50;9.70;;;15.90;90.40;;;;;;5072990;28;20625;-54
2020/12/16 11:16:30;;;;;;;10.30;9.50;;;16.20;90.20;;;;;;5073400;28;20621;-52
2020/12/16 11:18:59;;;;;;;8.80;8.10;;;16.80;89.70;;;;;;5072975;28;20629;-54
2020/12/16 11:21:29;;;;;;;8.60;7.90;;;17.30;86.50;;;;;;5073116;28;21172;-52
2020/12/16 11:24:02;;;;;;;9.37;8.33;;;17.40;84.20;;;;;;5071457;28;21205;-53
2020/12/16 11:26:35;;;;;;;10.47;8.50;;;17.30;83.50;;;;;;5072667;28;20625;-52
2020/12/16 11:29:02;;;;;;;9.20;8.50;;;17.30;83.50;;;;;;5071704;28;21394;-52
2020/12/16 11:31:29;;;;;;;9.30;8.40;;;17.40;83.80;;;;;;5071924;28;20660;-54
2020/12/16 11:33:56;;;;;;;8.60;7.80;;;17.60;83.00;;;;;;5072140;28;20692;-54
2020/12/16 11:36:23;;;;;;;10.20;9.30;;;17.80;82.00;;;;;;5072128;28;20652;-52
2020/12/16 11:38:50;;;;;;;10.80;9.77;;;18.00;80.40;;;;;;5071677;28;21246;-52
2020/12/16 11:41:17;;;;;;;9.60;8.90;;;18.00;80.40;;;;;;5071607;28;20695;-52
2020/12/16 11:43:44;;;;;;;10.17;9.17;;;18.20;80.50;;;;;;5070903;28;20621;-55
2020/12/16 11:46:11;;;;;;;10.47;9.47;;;18.30;79.20;;;;;;5071872;28;21168;-53
2020/12/16 11:48:37;;;;;;;10.00;9.10;;;18.60;77.70;;;;;;5071787;28;20705;-52
2020/12/16 11:51:04;;;;;;;10.77;9.73;;;18.80;76.60;;;;;;5070307;28;20676;-52
2020/12/16 11:53:32;;;;;;;10.80;9.77;;;18.70;76.40;;;;;;5072019;28;21040;-54
2020/12/16 11:56:01;;;;;;;11.73;10.50;;;18.50;76.70;;;;;;5072055;28;20628;-54
2020/12/16 11:58:29;;;;;;;9.43;8.63;;;18.30;77.20;;;;;;5072432;28;20635;-55
2020/12/16 12:00:56;;;;;;;11.20;10.10;;;18.00;78.10;;;;;;5072762;28;20616;-55
2020/12/16 12:03:22;;;;;;;11.13;10.13;;;17.90;79.30;;;;;;5072076;28;20624;-52
2020/12/16 12:05:50;;;;;;;11.97;10.67;;;17.70;79.30;;;;;;5073146;28;20663;-54
2020/12/16 12:08:17;;;;;;;10.87;9.90;;;17.60;79.80;;;;;;5071519;28;20665;-52
2020/12/16 12:10:45;;;;;;;11.87;10.77;;;17.40;80.50;;;;;;5070724;28;20984;-53
2020/12/16 12:13:14;;;;;;;12.00;10.80;;;17.30;80.90;;;;;;5071992;28;20974;-53
2020/12/16 12:15:41;;;;;;;10.50;9.70;;;17.20;81.40;;;;;;5072985;28;20632;-54
2020/12/16 12:18:08;;;;;;;11.70;10.60;;;17.10;82.20;;;;;;5070569;28;20625;-54
2020/12/16 12:20:35;;;;;;;10.40;9.53;;;17.00;83.10;;;;;;5071560;28;20633;-52
2020/12/16 12:23:03;;;;;;;11.50;10.50;;;17.10;84.20;;;;;;5069742;28;20769;-53
2020/12/16 12:25:30;;;;;;;9.90;9.10;;;17.40;82.80;;;;;;5071999;28;20632;-53
2020/12/16 12:27:57;;;;;;;10.77;9.87;;;17.70;81.90;;;;;;5070176;28;20710;-55
2020/12/16 12:30:25;;;;;;;13.10;11.97;;;17.90;80.40;;;;;;5071986;28;20651;-54
2020/12/16 12:32:52;;;;;;;14.70;13.30;;;17.90;80.60;;;;;;5071451;28;20648;-53